createdAt,value
2022-08-05T00:04:56.928Z,28.00
2022-08-05T00:09:58.797Z,28.00
2022-08-05T00:15:14.004Z,27.70
2022-08-05T00:20:22.408Z,27.20
2022-08-05T00:25:45.685Z,26.80
2022-08-05T00:30:52.137Z,26.50
2022-08-05T00:36:15.180Z,26.20
2022-08-05T00:41:28.708Z,26.00
2022-08-05T00:46:54.269Z,25.90
2022-08-05T00:52:04.837Z,25.70
2022-08-05T00:57:06.593Z,25.50
2022-08-05T01:02:08.821Z,25.30
2022-08-05T01:07:13.506Z,24.90
2022-08-05T01:12:20.198Z,24.40
2022-08-05T01:17:53.565Z,24.40
2022-08-05T01:23:14.930Z,24.40
2022-08-05T01:28:41.298Z,24.20
2022-08-05T01:33:53.530Z,24.20
2022-08-05T01:38:56.399Z,24.30
2022-08-05T01:44:03.060Z,24.40
2022-08-05T01:49:22.706Z,24.50
2022-08-05T01:54:31.628Z,24.50
2022-08-05T01:59:36.293Z,24.70
2022-08-05T02:04:40.755Z,24.60
2022-08-05T02:09:44.225Z,24.50
2022-08-05T02:14:53.354Z,24.80
2022-08-05T02:20:01.736Z,25.00
2022-08-05T02:25:12.650Z,24.90
2022-08-05T02:30:16.514Z,24.80
2022-08-05T02:35:28.041Z,24.90
2022-08-05T02:40:36.220Z,24.90
2022-08-05T02:45:52.765Z,24.90
2022-08-05T02:50:58.478Z,24.80
2022-08-05T02:56:02.075Z,24.50
2022-08-05T03:01:04.994Z,24.50
2022-08-05T03:06:56.651Z,24.60
2022-08-05T03:11:55.277Z,24.80
2022-08-05T03:16:53.621Z,24.90
2022-08-05T03:21:55.410Z,24.70
2022-08-05T03:26:58.697Z,24.80
2022-08-05T03:32:00.938Z,24.80
2022-08-05T03:37:04.433Z,24.80
2022-08-05T03:42:06.570Z,24.60
2022-08-05T03:47:09.271Z,24.50
2022-08-05T03:52:37.710Z,24.60
2022-08-05T03:57:46.111Z,24.50
2022-08-05T04:02:57.724Z,24.50
2022-08-05T04:08:29.745Z,24.50
2022-08-05T04:13:50.071Z,24.50
2022-08-05T04:18:54.138Z,24.60
2022-08-05T04:24:06.487Z,24.40
2022-08-05T04:29:08.913Z,24.70
2022-08-05T04:34:19.342Z,24.70
2022-08-05T04:39:33.475Z,24.80
2022-08-05T04:44:37.526Z,24.80
2022-08-05T04:50:01.977Z,25.10
2022-08-05T04:55:13.987Z,25.40
2022-08-05T05:00:17.282Z,25.40
2022-08-05T05:05:28.236Z,25.30
2022-08-05T05:10:33.875Z,25.30
2022-08-05T05:15:59.085Z,25.50
2022-08-05T05:20:57.618Z,26.90
2022-08-05T05:26:00.503Z,28.70
2022-08-05T05:31:02.499Z,29.00
2022-08-05T05:36:07.942Z,28.70
2022-08-05T05:41:12.268Z,28.70
2022-08-05T05:46:20.756Z,28.70
2022-08-05T05:51:27.737Z,28.20
2022-08-05T05:56:34.379Z,29.80
2022-08-05T06:01:57.692Z,31.10
2022-08-05T06:07:01.392Z,31.50
2022-08-05T06:12:04.448Z,31.90
2022-08-05T06:17:22.513Z,31.70
2022-08-05T06:22:29.553Z,33.40
2022-08-05T06:28:10.998Z,34.80
2022-08-05T06:32:53.988Z,34.60
2022-08-05T06:37:59.027Z,34.70
2022-08-05T06:43:02.994Z,34.30
2022-08-05T06:48:47.408Z,33.80
2022-08-05T06:53:28.237Z,32.60
2022-08-05T06:58:36.404Z,31.50
2022-08-05T07:03:38.664Z,33.20
2022-08-05T07:08:40.671Z,33.70
2022-08-05T07:14:02.648Z,35.20
2022-08-05T07:19:04.545Z,35.90
2022-08-05T07:24:09.202Z,35.40
2022-08-05T07:29:13.852Z,36.00
2022-08-05T07:34:15.587Z,36.50
2022-08-05T07:39:24.831Z,35.90
2022-08-05T07:44:46.304Z,36.40
2022-08-05T07:49:54.505Z,36.00
2022-08-05T07:54:57.088Z,35.30
2022-08-05T07:59:59.936Z,35.50
2022-08-05T08:05:02.531Z,35.70
2022-08-05T08:10:06.040Z,36.00
2022-08-05T08:15:15.450Z,36.90
2022-08-05T08:20:43.977Z,35.20
2022-08-05T08:26:00.108Z,35.40
2022-08-05T08:31:01.884Z,35.10
2022-08-05T08:41:52.671Z,36.00
2022-08-05T08:46:56.883Z,36.10
2022-08-05T08:52:13.678Z,34.20
2022-08-05T08:57:16.356Z,32.90
2022-08-05T09:02:21.035Z,32.50
2022-08-05T09:07:39.938Z,33.70
2022-08-05T09:12:50.837Z,33.10
2022-08-05T09:17:55.042Z,32.20
2022-08-05T09:23:18.697Z,31.70
2022-08-05T09:28:24.377Z,32.50
2022-08-05T09:33:58.632Z,34.50
2022-08-05T09:39:18.207Z,35.70
2022-08-05T09:44:38.186Z,36.10
2022-08-05T09:50:01.632Z,36.80
2022-08-05T09:55:56.833Z,37.10
2022-08-05T10:00:30.847Z,37.00
2022-08-05T10:05:33.590Z,37.00
2022-08-05T10:10:44.967Z,37.40
2022-08-05T10:15:50.047Z,37.40
2022-08-05T10:20:56.950Z,37.40
2022-08-05T10:26:01.561Z,36.90
2022-08-05T10:32:50.726Z,36.00
2022-08-05T10:36:26.729Z,34.50
2022-08-05T10:41:46.554Z,33.60
2022-08-05T10:46:54.204Z,33.00
2022-08-05T10:52:02.336Z,32.70
2022-08-05T10:57:05.083Z,33.90
2022-08-05T11:02:14.532Z,35.20
2022-08-05T11:08:02.619Z,35.00
2022-08-05T11:12:57.285Z,34.80
2022-08-05T11:18:32.414Z,35.60
2022-08-05T11:24:05.661Z,37.10
2022-08-05T11:29:13.827Z,37.40
2022-08-05T11:34:18.090Z,37.40
2022-08-05T11:40:00.464Z,37.90
2022-08-05T11:45:14.205Z,37.10
2022-08-05T11:50:25.900Z,37.30
2022-08-05T11:55:32.230Z,37.60
2022-08-05T12:00:39.042Z,38.50
2022-08-05T12:05:43.766Z,37.30
2022-08-05T12:10:46.625Z,37.40
2022-08-05T12:15:50.577Z,37.30
2022-08-05T12:21:09.680Z,37.10
2022-08-05T12:26:11.466Z,37.00
2022-08-05T12:31:23.103Z,36.70
2022-08-05T12:36:25.770Z,36.50
2022-08-05T12:41:34.487Z,36.90
2022-08-05T12:46:39.643Z,37.20
2022-08-05T12:52:14.394Z,37.00
2022-08-05T12:57:13.669Z,36.80
2022-08-05T13:02:27.337Z,36.50
2022-08-05T13:07:57.137Z,36.10
2022-08-05T13:12:58.148Z,35.40
2022-08-05T13:18:00.152Z,35.50
2022-08-05T13:23:07.202Z,35.70
2022-08-05T13:28:10.668Z,35.60
2022-08-05T13:33:14.297Z,36.00
2022-08-05T13:38:36.231Z,36.30
2022-08-05T13:43:44.331Z,36.00
2022-08-05T13:48:57.169Z,36.20
2022-08-05T13:54:01.288Z,36.10
2022-08-05T13:59:06.100Z,35.90
2022-08-05T14:04:40.294Z,35.70
2022-08-05T14:09:42.826Z,36.10
2022-08-05T14:14:48.564Z,35.60
2022-08-05T14:19:59.597Z,35.00
2022-08-05T14:25:06.367Z,34.60
2022-08-05T14:30:21.556Z,33.70
2022-08-05T14:35:23.794Z,33.60
2022-08-05T14:40:40.961Z,34.00
2022-08-05T14:45:45.808Z,33.50
2022-08-05T14:50:47.690Z,33.50
2022-08-05T14:55:52.542Z,33.50
2022-08-05T15:00:59.115Z,33.40
2022-08-05T15:06:07.943Z,33.70
2022-08-05T15:11:15.509Z,33.50
2022-08-05T15:16:17.751Z,33.50
2022-08-05T15:21:21.113Z,33.10
2022-08-05T15:26:32.139Z,32.00
2022-08-05T15:31:34.994Z,32.30
2022-08-05T15:36:36.950Z,31.90
2022-08-05T15:41:57.267Z,31.70
2022-08-05T15:47:01.834Z,31.40
2022-08-05T15:52:16.885Z,31.60
2022-08-05T15:57:25.735Z,31.40
2022-08-05T16:02:35.001Z,31.10
2022-08-05T16:07:36.899Z,30.80
2022-08-05T16:12:38.687Z,30.70
2022-08-05T16:17:41.000Z,30.90
2022-08-05T16:22:42.814Z,30.70
2022-08-05T16:27:59.764Z,30.50
2022-08-05T16:33:07.025Z,30.10
2022-08-05T16:38:24.489Z,30.10
2022-08-05T16:43:30.379Z,29.90
2022-08-05T16:48:33.938Z,29.60
2022-08-05T16:54:05.063Z,29.70
2022-08-05T16:59:07.695Z,29.70
2022-08-05T17:04:10.460Z,29.50
2022-08-05T17:09:12.228Z,29.40
2022-08-05T17:14:22.401Z,29.10
2022-08-05T17:19:37.583Z,29.00
2022-08-05T17:24:45.403Z,29.00
2022-08-05T17:30:00.624Z,28.70
2022-08-05T17:35:04.181Z,28.60
2022-08-05T17:40:10.390Z,28.40
2022-08-05T17:45:20.664Z,28.40
2022-08-05T17:50:28.715Z,28.30
2022-08-05T17:55:37.336Z,27.80
2022-08-05T18:00:45.020Z,26.90
2022-08-05T18:05:53.328Z,26.50
2022-08-05T18:10:55.503Z,26.00
2022-08-05T18:15:59.116Z,25.60
2022-08-05T18:21:01.662Z,25.20
2022-08-05T18:26:04.777Z,24.80
2022-08-05T18:31:07.284Z,24.40
2022-08-05T18:36:15.376Z,24.20
2022-08-05T18:41:53.642Z,24.10
2022-08-05T18:46:41.305Z,24.10
2022-08-05T18:52:08.976Z,24.00
2022-08-05T18:57:15.190Z,23.80
2022-08-05T19:02:26.754Z,23.80
2022-08-05T19:07:45.092Z,23.80
2022-08-05T19:12:48.294Z,23.50
2022-08-05T19:18:08.562Z,23.30
2022-08-05T19:24:04.256Z,23.00
2022-08-05T19:28:34.951Z,22.90
2022-08-05T19:33:38.085Z,22.90
2022-08-05T19:38:43.751Z,23.00
2022-08-05T19:44:06.368Z,22.70
2022-08-05T19:49:07.557Z,22.60
2022-08-05T19:54:22.838Z,22.50
2022-08-05T19:59:56.320Z,22.40
2022-08-05T20:04:58.849Z,22.50
2022-08-05T20:10:01.445Z,22.20
2022-08-05T20:15:07.401Z,21.90
2022-08-05T20:20:11.232Z,21.80
2022-08-05T20:25:13.019Z,21.70
2022-08-05T20:30:15.248Z,21.40
2022-08-05T20:35:21.593Z,21.10
2022-08-05T20:40:23.870Z,21.00
2022-08-05T20:45:56.429Z,20.90
2022-08-05T20:50:47.827Z,21.00
2022-08-05T20:55:56.757Z,20.90
2022-08-05T21:01:10.867Z,20.80
2022-08-05T21:06:27.885Z,20.80
2022-08-05T21:12:09.457Z,20.80
2022-08-05T21:16:52.268Z,20.80
2022-08-05T21:21:54.285Z,20.90
2022-08-05T21:26:58.800Z,20.90
2022-08-05T21:32:02.587Z,20.80
2022-08-05T21:37:05.111Z,20.70
2022-08-05T21:42:07.236Z,20.90
2022-08-05T21:47:54.703Z,20.80
2022-08-05T21:52:50.961Z,20.70
2022-08-05T21:57:52.784Z,20.80
2022-08-05T22:02:55.728Z,20.70
2022-08-05T22:07:58.957Z,20.60
2022-08-05T22:13:09.146Z,20.50
2022-08-05T22:18:26.192Z,20.40
2022-08-05T22:24:01.993Z,20.30
2022-08-05T22:29:05.804Z,20.30
2022-08-05T22:34:08.118Z,20.20
2022-08-05T22:39:12.731Z,20.10
2022-08-05T22:44:16.125Z,20.10
2022-08-05T22:50:17.639Z,20.10
2022-08-05T22:54:46.659Z,20.10
2022-08-05T22:59:54.110Z,20.00
2022-08-05T23:04:56.351Z,19.90
2022-08-05T23:10:01.920Z,19.90
2022-08-05T23:15:08.861Z,19.80
2022-08-05T23:20:17.662Z,19.80
2022-08-05T23:25:52.394Z,19.90
2022-08-05T23:30:43.802Z,19.90
2022-08-05T23:35:45.787Z,19.80
2022-08-05T23:40:49.449Z,19.80
2022-08-05T23:45:52.274Z,19.70
2022-08-05T23:50:54.713Z,19.70
2022-08-05T23:55:56.500Z,19.70
